createdAt,value
2019-01-24T06:44:58.233Z,40.00
2019-01-24T06:45:57.973Z,41.70
2019-01-24T06:46:57.996Z,42.70
2019-01-24T06:47:57.969Z,42.80
2019-01-24T06:48:57.977Z,40.70
2019-01-24T06:50:08.251Z,40.90
2019-01-24T06:51:08.360Z,40.30
2019-01-24T06:51:57.905Z,39.70
2019-01-24T06:52:57.924Z,40.70
2019-01-24T06:53:57.962Z,39.40
2019-01-24T06:54:57.896Z,40.60
2019-01-24T06:55:57.878Z,38.30
2019-01-24T06:56:57.903Z,40.40
2019-01-24T06:57:57.857Z,40.40
2019-01-24T06:58:57.881Z,40.80
2019-01-24T06:59:57.829Z,40.80
2019-01-24T07:00:57.825Z,40.90
2019-01-24T07:01:57.822Z,38.10
2019-01-24T07:02:57.843Z,41.50
2019-01-24T07:03:57.793Z,40.20
2019-01-24T07:04:57.830Z,40.90
2019-01-24T07:05:57.780Z,39.30
2019-01-24T07:06:57.783Z,41.20
2019-01-24T07:07:57.879Z,40.90
2019-01-24T07:09:00.640Z,41.50
2019-01-24T07:09:58.406Z,41.50
2019-01-24T07:10:57.735Z,41.30
2019-01-24T07:11:57.723Z,41.80
2019-01-24T07:12:58.828Z,41.60
2019-01-24T07:13:58.720Z,40.50
2019-01-24T07:14:57.689Z,42.10
2019-01-24T07:15:57.684Z,40.70
2019-01-24T07:16:57.666Z,42.50
2019-01-24T07:17:57.637Z,42.70
2019-01-24T07:18:57.645Z,41.10
2019-01-24T07:19:57.634Z,43.70
2019-01-24T07:20:57.620Z,41.90
2019-01-24T07:21:57.614Z,41.50
2019-01-24T07:22:57.601Z,41.40
2019-01-24T07:23:57.622Z,41.90
2019-01-24T07:24:57.591Z,43.50
2019-01-24T07:25:57.608Z,40.40
2019-01-24T07:26:57.569Z,40.50
2019-01-24T07:27:57.563Z,40.40
2019-01-24T07:28:57.574Z,42.90
2019-01-24T07:29:57.552Z,40.10
2019-01-24T07:30:57.567Z,40.50
2019-01-24T07:31:57.526Z,39.70
2019-01-24T07:32:57.511Z,40.90
2019-01-24T07:33:57.495Z,42.00
2019-01-24T07:34:57.546Z,40.80
2019-01-24T07:36:02.172Z,39.70
2019-01-24T07:36:58.491Z,40.70
2019-01-24T07:37:57.446Z,40.70
2019-01-24T07:38:57.471Z,40.40
2019-01-24T07:39:57.431Z,42.40
2019-01-24T07:40:58.359Z,41.30
2019-01-24T07:41:57.440Z,43.20
2019-01-24T07:42:57.428Z,39.50
2019-01-24T07:43:57.404Z,40.70
2019-01-24T07:44:57.381Z,40.90
2019-01-24T07:45:57.414Z,41.40
2019-01-24T07:46:58.285Z,42.00
2019-01-24T07:47:57.358Z,41.20
2019-01-24T07:48:57.344Z,41.40
2019-01-24T07:49:57.390Z,41.10
2019-01-24T07:50:57.340Z,41.00
2019-01-24T07:51:57.311Z,42.00
2019-01-24T07:52:57.333Z,42.10
2019-01-24T07:53:57.298Z,40.80
2019-01-24T07:54:57.312Z,41.40
2019-01-24T07:55:57.298Z,40.80
2019-01-24T07:56:57.272Z,38.80
2019-01-24T07:57:57.282Z,39.50
2019-01-24T07:58:57.251Z,39.40
2019-01-24T07:59:57.234Z,39.30
2019-01-24T08:00:57.255Z,39.50
2019-01-24T08:01:57.285Z,36.90
2019-01-24T08:02:57.219Z,37.90
2019-01-24T08:03:57.208Z,37.10
2019-01-24T08:04:57.216Z,37.20
2019-01-24T08:05:57.167Z,38.20
2019-01-24T08:06:57.169Z,38.30
2019-01-24T08:07:57.172Z,38.20
2019-01-24T08:08:57.220Z,37.90
2019-01-24T08:09:57.142Z,39.90
2019-01-24T08:10:57.191Z,36.60
2019-01-24T08:11:57.111Z,38.20
2019-01-24T08:12:57.129Z,38.40
2019-01-24T08:13:57.099Z,39.00
2019-01-24T08:14:57.113Z,36.90
2019-01-24T08:15:57.102Z,36.80
2019-01-24T08:16:57.056Z,36.80
2019-01-24T08:17:57.078Z,36.20
2019-01-24T08:18:57.191Z,38.90
2019-01-24T08:19:57.039Z,38.00
2019-01-24T08:20:57.031Z,37.30
2019-01-24T08:21:57.324Z,37.40
2019-01-24T08:22:57.010Z,39.60
2019-01-24T08:23:57.019Z,39.40
2019-01-24T08:24:57.011Z,38.20
2019-01-24T08:25:57.011Z,37.60
2019-01-24T08:26:56.964Z,39.80
2019-01-24T08:27:57.055Z,36.90
2019-01-24T08:28:57.007Z,40.90
2019-01-24T08:29:56.943Z,39.20
2019-01-24T08:30:56.989Z,39.40
2019-01-24T08:31:56.910Z,41.40
2019-01-24T08:32:56.936Z,41.50
2019-01-24T08:33:57.869Z,41.70
2019-01-24T08:34:57.805Z,43.20
2019-01-24T08:35:56.989Z,42.50
2019-01-24T08:36:56.912Z,40.30
2019-01-24T08:37:57.008Z,39.30
2019-01-24T08:38:56.854Z,40.80
2019-01-24T08:39:56.863Z,40.00
2019-01-24T08:40:56.841Z,41.80
2019-01-24T08:41:56.823Z,41.10
2019-01-24T08:42:56.807Z,42.80
2019-01-24T08:43:56.782Z,41.60
2019-01-24T08:44:56.776Z,42.50
2019-01-24T08:45:56.831Z,41.80
2019-01-24T08:46:56.766Z,43.70
2019-01-24T08:47:56.774Z,42.10
2019-01-24T08:48:56.756Z,40.00
2019-01-24T08:49:56.748Z,44.10
2019-01-24T08:50:56.781Z,42.50
2019-01-24T08:51:56.742Z,42.40
2019-01-24T08:52:56.810Z,41.40
2019-01-24T08:53:56.699Z,43.20
2019-01-24T08:54:56.754Z,41.30
2019-01-24T08:55:56.712Z,41.80
2019-01-24T08:56:56.721Z,40.50
2019-01-24T08:57:56.663Z,41.50
2019-01-24T08:58:56.742Z,41.50
2019-01-24T08:59:56.663Z,41.40
2019-01-24T09:00:56.686Z,41.20
2019-01-24T09:01:56.618Z,41.90
2019-01-24T09:03:05.428Z,40.20
2019-01-24T09:03:56.619Z,41.30
2019-01-24T09:04:56.593Z,42.90
2019-01-24T09:05:56.596Z,41.40
2019-01-24T09:06:56.609Z,42.10
2019-01-24T09:07:56.671Z,42.00
2019-01-24T09:08:56.570Z,42.30
2019-01-24T09:09:57.316Z,43.90
2019-01-24T09:10:56.625Z,42.30
2019-01-24T09:11:56.860Z,40.40
2019-01-24T09:12:56.511Z,40.70
2019-01-24T09:13:56.879Z,43.10
2019-01-24T09:14:56.596Z,41.90
2019-01-24T09:15:56.603Z,42.20
2019-01-24T09:16:56.520Z,41.10
2019-01-24T09:17:56.639Z,40.60
2019-01-24T09:18:56.571Z,43.10
2019-01-24T09:19:56.525Z,42.90
2019-01-24T09:20:56.956Z,41.50
2019-01-24T09:21:56.431Z,43.40
2019-01-24T09:22:56.418Z,42.20
2019-01-24T09:23:56.539Z,43.00
2019-01-24T09:24:56.434Z,40.20
2019-01-24T09:25:56.383Z,40.30
2019-01-24T09:26:56.411Z,41.00
2019-01-24T09:27:56.423Z,40.50
2019-01-24T09:28:56.355Z,41.50
2019-01-24T09:29:56.413Z,40.30
2019-01-24T09:30:56.354Z,41.10
2019-01-24T09:31:56.328Z,42.80
2019-01-24T09:32:56.400Z,40.50
2019-01-24T09:33:56.815Z,40.10
2019-01-24T09:34:56.444Z,41.70
2019-01-24T09:35:56.408Z,41.30
2019-01-24T09:36:56.285Z,41.80
2019-01-24T09:37:56.360Z,41.10
2019-01-24T09:38:56.255Z,42.00
2019-01-24T09:39:56.278Z,43.80
2019-01-24T09:40:56.348Z,41.90
2019-01-24T09:41:56.279Z,40.30
2019-01-24T09:42:56.265Z,41.30
2019-01-24T09:43:56.230Z,42.00
2019-01-24T09:44:56.332Z,41.60
2019-01-24T09:45:56.208Z,42.10
2019-01-24T09:46:56.258Z,42.00
2019-01-24T09:47:56.197Z,41.90
2019-01-24T09:48:56.274Z,40.50
2019-01-24T09:49:56.514Z,39.50
2019-01-24T09:50:56.313Z,42.90
2019-01-24T09:51:56.179Z,43.00
2019-01-24T09:52:56.532Z,41.70
2019-01-24T09:53:56.277Z,39.90
2019-01-24T09:54:56.165Z,41.60
2019-01-24T09:55:56.173Z,39.70
2019-01-24T09:56:56.220Z,40.70
2019-01-24T09:57:56.189Z,41.50
2019-01-24T09:58:56.319Z,38.70
2019-01-24T09:59:56.077Z,40.70
2019-01-24T10:00:56.056Z,41.30
2019-01-24T10:01:56.829Z,42.00
2019-01-24T10:02:56.119Z,39.20
2019-01-24T10:03:56.119Z,39.30
2019-01-24T10:04:56.013Z,40.60
2019-01-24T10:05:56.121Z,38.90
2019-01-24T10:08:13.419Z,40.00
2019-01-24T10:10:31.967Z,39.00
2019-01-24T10:11:41.219Z,38.80
2019-01-24T10:15:40.530Z,38.80
2019-01-24T10:18:09.999Z,42.20
2019-01-24T10:19:19.355Z,40.40
2019-01-24T10:20:19.899Z,39.50
2019-01-24T10:21:09.879Z,39.50
2019-01-24T10:23:39.161Z,38.60
2019-01-24T10:24:39.067Z,39.10
2019-01-24T10:25:39.155Z,38.20
2019-01-24T10:26:39.118Z,37.40
2019-01-24T10:27:39.081Z,40.30
2019-01-24T10:28:39.045Z,38.30
2019-01-24T10:29:39.111Z,38.50
2019-01-24T10:30:42.938Z,39.00
2019-01-24T10:31:39.119Z,37.50
2019-01-24T10:32:39.088Z,39.60
2019-01-24T10:33:39.035Z,38.40
2019-01-24T10:34:39.183Z,37.80
2019-01-24T10:35:39.145Z,41.40
2019-01-24T10:36:43.004Z,39.60
2019-01-24T10:37:38.997Z,39.90
2019-01-24T10:38:39.264Z,41.30
2019-01-24T10:39:39.124Z,39.60
2019-01-24T10:40:39.571Z,39.40
2019-01-24T10:41:39.385Z,39.60
2019-01-24T10:42:39.091Z,39.10
2019-01-24T10:43:39.184Z,38.60
2019-01-24T10:44:38.961Z,41.60
2019-01-24T10:45:39.515Z,40.80
2019-01-24T10:46:39.515Z,40.90
2019-01-24T10:47:38.917Z,39.90
2019-01-24T10:48:39.085Z,40.20
2019-01-24T10:49:38.929Z,40.30
2019-01-24T10:50:38.847Z,40.10
2019-01-24T10:51:38.998Z,42.00
2019-01-24T10:52:38.960Z,42.30
2019-01-24T10:53:38.847Z,40.20
2019-01-24T10:54:38.856Z,41.10
2019-01-24T10:55:38.778Z,43.00
2019-01-24T10:56:38.797Z,39.80
2019-01-24T10:57:39.516Z,38.40
2019-01-24T10:58:38.792Z,38.70
2019-01-24T10:59:38.775Z,41.00
2019-01-24T11:00:38.805Z,39.20
2019-01-24T11:01:39.534Z,40.70
2019-01-24T11:02:38.768Z,41.00
2019-01-24T11:03:38.756Z,42.60
2019-01-24T11:04:38.665Z,41.10
2019-01-24T11:05:38.668Z,41.40
2019-01-24T11:06:38.656Z,43.00
2019-01-24T11:07:38.665Z,42.50
2019-01-24T11:08:38.706Z,40.50
2019-01-24T11:09:38.616Z,40.50
2019-01-24T11:10:38.610Z,42.50
2019-01-24T11:11:38.631Z,43.30
2019-01-24T11:12:38.599Z,42.90
2019-01-24T11:13:38.601Z,44.90
2019-01-24T11:14:38.602Z,41.20
2019-01-24T11:15:39.515Z,44.30
2019-01-24T11:16:38.565Z,45.50
2019-01-24T11:17:39.517Z,43.70
2019-01-24T11:18:38.524Z,42.30
2019-01-24T11:19:38.540Z,43.50
2019-01-24T11:20:38.525Z,42.60
2019-01-24T11:21:38.529Z,44.80
2019-01-24T11:22:38.555Z,46.50
2019-01-24T11:23:38.544Z,45.00
2019-01-24T11:24:38.548Z,45.60
2019-01-24T11:25:39.017Z,44.80
2019-01-24T11:26:38.688Z,45.80
2019-01-24T11:27:38.458Z,43.90
2019-01-24T11:28:39.014Z,44.60
2019-01-24T11:29:38.571Z,45.90
2019-01-24T11:30:38.536Z,47.30
2019-01-24T11:31:38.554Z,45.50
2019-01-24T11:32:38.444Z,45.80
2019-01-24T11:33:38.421Z,47.90
2019-01-24T11:34:38.543Z,48.20
2019-01-24T11:35:38.504Z,46.40
2019-01-24T11:38:05.217Z,47.70
2019-01-24T11:39:05.055Z,48.20
2019-01-24T11:40:05.085Z,47.30
2019-01-24T11:41:05.041Z,47.90
2019-01-24T11:42:05.638Z,47.50
2019-01-24T11:43:05.066Z,47.50
2019-01-24T11:44:05.026Z,48.20
2019-01-24T11:45:04.998Z,50.30
2019-01-24T11:46:04.989Z,51.10
2019-01-24T11:47:05.029Z,47.70
2019-01-24T11:48:14.711Z,53.00
2019-01-24T11:49:05.059Z,46.70
2019-01-24T11:50:05.014Z,49.70
2019-01-24T11:51:04.960Z,50.60
2019-01-24T11:52:05.018Z,46.90
2019-01-24T11:53:05.788Z,50.10
2019-01-24T11:54:04.912Z,49.60
2019-01-24T11:55:04.884Z,50.80
2019-01-24T11:56:06.244Z,49.20
2019-01-24T11:57:04.939Z,49.60
2019-01-24T11:58:04.899Z,49.80
2019-01-24T11:59:04.884Z,49.00
2019-01-24T12:00:04.907Z,50.90
2019-01-24T12:01:04.920Z,50.50
2019-01-24T12:02:04.879Z,52.90
2019-01-24T12:03:04.796Z,54.30
2019-01-24T12:04:04.825Z,51.30
2019-01-24T12:05:04.905Z,54.10
2019-01-24T12:06:04.805Z,57.60
2019-01-24T12:07:04.818Z,55.30
2019-01-24T12:08:14.327Z,55.90
2019-01-24T12:09:04.975Z,57.70
2019-01-24T12:10:04.734Z,57.50
2019-01-24T12:11:16.482Z,57.80
2019-01-24T12:12:04.961Z,60.20
2019-01-24T12:13:04.837Z,57.20
2019-01-24T12:14:04.915Z,56.90
2019-01-24T12:15:04.699Z,56.40
2019-01-24T12:16:04.712Z,59.30
2019-01-24T12:17:14.690Z,61.70
2019-01-24T12:18:04.786Z,67.70
2019-01-24T12:19:04.749Z,66.50
2019-01-24T12:20:14.581Z,67.90
2019-01-24T12:21:13.805Z,64.50
2019-01-24T12:22:04.630Z,67.00
2019-01-24T12:23:04.761Z,67.20
2019-01-24T12:24:04.839Z,68.60
2019-01-24T12:25:04.614Z,66.40
2019-01-24T12:26:04.662Z,68.10
2019-01-24T12:27:04.680Z,67.10
2019-01-24T12:28:07.522Z,65.30
2019-01-24T12:29:04.626Z,67.50
2019-01-24T12:30:04.607Z,65.10
2019-01-24T12:31:04.627Z,67.20
2019-01-24T12:32:04.524Z,68.20
2019-01-24T12:33:04.528Z,70.70
2019-01-24T12:34:04.502Z,70.00
2019-01-24T12:35:04.553Z,68.00
2019-01-24T12:36:04.502Z,68.30
2019-01-24T12:38:23.985Z,67.20
2019-01-24T12:39:31.061Z,68.70
2019-01-24T12:40:23.021Z,70.60
2019-01-24T12:41:33.305Z,69.70
2019-01-24T12:42:23.094Z,69.40
2019-01-24T12:43:23.132Z,69.10
2019-01-24T12:44:22.881Z,72.40
2019-01-24T12:45:22.893Z,67.00
2019-01-24T12:46:22.890Z,69.70
2019-01-24T12:47:23.101Z,67.80
2019-01-24T12:48:22.903Z,68.20
2019-01-24T12:49:22.979Z,66.50
2019-01-24T12:50:33.010Z,64.10
2019-01-24T12:51:22.842Z,67.40
2019-01-24T12:52:22.971Z,67.90
2019-01-24T12:53:22.799Z,68.90
2019-01-24T12:54:22.768Z,64.90
2019-01-24T12:55:22.956Z,64.00
2019-01-24T12:56:22.855Z,68.30
2019-01-24T12:57:22.842Z,65.60
2019-01-24T12:58:23.616Z,70.60
2019-01-24T12:59:22.826Z,66.30
2019-01-24T13:00:22.883Z,64.30
2019-01-24T13:01:22.738Z,68.50
2019-01-24T13:02:23.172Z,70.40
2019-01-24T13:03:22.757Z,66.90
2019-01-24T13:04:23.223Z,65.40
2019-01-24T13:05:22.758Z,67.90
2019-01-24T13:06:22.781Z,63.40
2019-01-24T13:07:22.789Z,68.80
2019-01-24T13:08:22.716Z,67.60
2019-01-24T13:09:23.226Z,64.00
2019-01-24T13:10:23.226Z,64.40
2019-01-24T13:11:23.721Z,66.80
2019-01-24T13:12:22.681Z,65.50
2019-01-24T13:13:22.994Z,63.00
2019-01-24T13:15:51.456Z,62.30
2019-01-24T13:16:52.248Z,63.30
2019-01-24T13:17:51.374Z,64.00
2019-01-24T13:18:51.498Z,63.50
2019-01-24T13:20:00.909Z,63.80
2019-01-24T13:22:31.260Z,63.90
2019-01-24T13:23:31.254Z,61.90
2019-01-24T13:24:31.977Z,62.50
2019-01-24T13:25:31.175Z,62.40
2019-01-24T13:26:31.131Z,61.70
2019-01-24T13:27:31.521Z,61.50
2019-01-24T13:28:31.978Z,59.30
2019-01-24T13:29:40.570Z,61.30
2019-01-24T13:30:31.066Z,59.90
2019-01-24T13:31:31.073Z,60.60
2019-01-24T13:32:31.053Z,56.90
2019-01-24T13:33:31.044Z,60.70
2019-01-24T13:34:31.064Z,56.30
2019-01-24T13:35:31.017Z,55.10
2019-01-24T13:36:31.003Z,57.00
2019-01-24T13:37:31.016Z,55.80
2019-01-24T13:38:30.991Z,57.30
2019-01-24T13:39:31.020Z,57.80
2019-01-24T13:40:31.031Z,56.00
2019-01-24T13:41:30.985Z,58.00
2019-01-24T13:42:30.978Z,55.40
2019-01-24T13:43:30.950Z,55.90
2019-01-24T13:44:31.504Z,59.00
2019-01-24T13:46:22.636Z,55.60
2019-01-24T13:47:22.622Z,58.30
2019-01-24T13:48:22.599Z,57.80
2019-01-24T13:49:22.583Z,58.90
2019-01-24T13:50:22.563Z,58.50
2019-01-24T13:51:22.579Z,57.70
2019-01-24T13:52:22.541Z,59.70
2019-01-24T13:53:22.566Z,56.90
2019-01-24T13:54:22.527Z,57.20
2019-01-24T13:55:22.529Z,56.10
2019-01-24T13:56:32.657Z,57.00
2019-01-24T13:57:22.536Z,55.90
2019-01-24T13:58:22.534Z,55.80
2019-01-24T13:59:22.514Z,54.40
2019-01-24T14:00:22.522Z,58.00
2019-01-24T14:01:22.546Z,57.00
2019-01-24T14:02:22.640Z,56.00
2019-01-24T14:03:22.457Z,55.20
2019-01-24T14:04:22.479Z,53.90
2019-01-24T14:05:22.627Z,54.40
2019-01-24T14:06:22.467Z,53.30
2019-01-24T14:07:22.541Z,55.70
2019-01-24T14:08:22.443Z,55.90
2019-01-24T14:09:22.450Z,54.90
2019-01-24T14:10:22.409Z,57.70
2019-01-24T14:11:22.388Z,56.20
2019-01-24T14:12:22.408Z,55.90
2019-01-24T14:13:22.451Z,55.20
2019-01-24T14:14:22.428Z,55.70
2019-01-24T14:15:22.392Z,52.40
2019-01-24T14:16:22.347Z,52.30
2019-01-24T14:17:22.432Z,52.50
2019-01-24T14:18:22.344Z,52.60
2019-01-24T14:19:22.404Z,52.50
2019-01-24T14:20:22.378Z,54.30
2019-01-24T14:21:22.295Z,52.40
2019-01-24T14:22:22.273Z,52.60
2019-01-24T14:23:22.331Z,52.90
2019-01-24T14:24:22.324Z,54.80
2019-01-24T14:25:22.268Z,53.80
2019-01-24T14:26:22.267Z,54.10
2019-01-24T14:27:22.256Z,56.70
2019-01-24T14:28:22.266Z,51.10
2019-01-24T14:29:22.260Z,54.50
2019-01-24T14:30:22.252Z,53.90
2019-01-24T14:31:22.195Z,55.90
2019-01-24T14:32:22.229Z,58.80
2019-01-24T14:33:22.181Z,54.90
2019-01-24T14:34:22.149Z,56.50
2019-01-24T14:35:22.119Z,55.90
2019-01-24T14:36:25.446Z,56.00
2019-01-24T14:37:22.171Z,54.80
2019-01-24T14:38:22.162Z,56.80
2019-01-24T14:39:22.164Z,57.40
2019-01-24T14:40:22.944Z,56.50
2019-01-24T14:41:22.146Z,56.40
2019-01-24T14:42:22.088Z,55.70
2019-01-24T14:43:22.104Z,57.30
2019-01-24T14:44:22.057Z,55.20
2019-01-24T14:45:22.079Z,54.70
2019-01-24T14:46:22.033Z,54.10
2019-01-24T14:47:22.018Z,56.30
2019-01-24T14:48:22.069Z,56.00
2019-01-24T14:49:22.062Z,58.70
2019-01-24T14:50:22.137Z,55.10
2019-01-24T14:51:22.050Z,56.00
2019-01-24T14:52:22.945Z,56.10
2019-01-24T14:53:21.966Z,58.40
2019-01-24T14:54:22.018Z,58.90
2019-01-24T14:55:21.973Z,57.30
2019-01-24T14:56:21.996Z,58.10
2019-01-24T14:57:21.940Z,58.90
2019-01-24T14:58:21.989Z,57.20
2019-01-24T14:59:22.016Z,55.50
2019-01-24T15:00:21.904Z,55.20
2019-01-24T15:01:21.898Z,58.10
2019-01-24T15:02:21.923Z,57.30
2019-01-24T15:03:21.877Z,55.30
2019-01-24T15:04:21.843Z,59.60
2019-01-24T15:05:21.841Z,55.50
2019-01-24T15:06:21.837Z,58.10
2019-01-24T15:07:21.844Z,57.50
2019-01-24T15:08:21.860Z,56.70
2019-01-24T15:09:21.886Z,58.80
2019-01-24T15:10:21.848Z,57.60
2019-01-24T15:11:22.159Z,55.50
2019-01-24T15:12:21.858Z,59.00
2019-01-24T15:13:21.779Z,55.80
2019-01-24T15:14:21.798Z,61.30
2019-01-24T15:15:21.881Z,57.50
2019-01-24T15:16:21.728Z,56.20
2019-01-24T15:17:21.736Z,59.80
2019-01-24T15:18:21.856Z,58.00
2019-01-24T15:19:21.722Z,59.00
2019-01-24T15:20:21.694Z,60.50
2019-01-24T15:21:21.688Z,60.60
2019-01-24T15:22:21.692Z,62.70
2019-01-24T15:23:22.445Z,62.80
2019-01-24T15:24:21.680Z,61.10
2019-01-24T15:25:21.669Z,59.90
2019-01-24T15:26:21.672Z,59.90
2019-01-24T15:27:21.703Z,63.10
2019-01-24T15:28:21.682Z,62.80
2019-01-24T15:29:21.605Z,62.80
2019-01-24T15:30:21.652Z,61.10
2019-01-24T15:31:21.619Z,59.60
2019-01-24T15:32:21.604Z,60.50
2019-01-24T15:33:21.705Z,65.10
2019-01-24T15:34:21.577Z,64.70
2019-01-24T15:35:21.554Z,60.80
2019-01-24T15:36:32.196Z,66.60
2019-01-24T15:37:31.179Z,64.30
2019-01-24T15:38:21.560Z,62.70
2019-01-24T15:39:29.768Z,64.50
2019-01-24T15:40:30.756Z,66.00
2019-01-24T15:41:21.489Z,64.60
2019-01-24T15:42:21.480Z,63.30
2019-01-24T15:43:21.484Z,61.90
2019-01-24T15:44:21.462Z,62.10
2019-01-24T15:45:21.418Z,65.50
2019-01-24T15:46:30.621Z,65.00
2019-01-24T15:47:21.444Z,64.80
2019-01-24T15:48:21.389Z,63.00
2019-01-24T15:49:21.423Z,59.80
2019-01-24T15:50:21.349Z,61.20
2019-01-24T15:51:21.348Z,62.40
2019-01-24T15:52:21.373Z,58.90
2019-01-24T15:53:21.363Z,57.70
2019-01-24T15:54:21.341Z,60.30
2019-01-24T15:55:21.327Z,58.80
2019-01-24T15:56:21.323Z,63.40
2019-01-24T15:57:21.322Z,64.80
2019-01-24T15:58:21.457Z,62.70
2019-01-24T15:59:21.441Z,63.00
2019-01-24T16:00:21.308Z,65.20
2019-01-24T16:01:21.373Z,63.70
2019-01-24T16:02:21.350Z,62.20
2019-01-24T16:03:21.299Z,63.30
2019-01-24T16:04:21.423Z,62.90
2019-01-24T16:05:21.245Z,61.50
2019-01-24T16:06:21.241Z,63.30
2019-01-24T16:07:21.224Z,63.90
2019-01-24T16:08:21.218Z,61.70
2019-01-24T16:09:21.239Z,64.70
2019-01-24T16:10:21.212Z,63.90
2019-01-24T16:11:21.195Z,62.70
2019-01-24T16:12:21.232Z,65.20
2019-01-24T16:13:21.151Z,64.20
2019-01-24T16:14:21.147Z,65.60
2019-01-24T16:15:21.231Z,65.80
2019-01-24T16:16:21.114Z,64.60
2019-01-24T16:17:21.196Z,67.80
2019-01-24T16:18:21.109Z,63.50
2019-01-24T16:19:21.072Z,67.50
2019-01-24T16:20:21.077Z,65.60
2019-01-24T16:21:21.069Z,66.80
2019-01-24T16:22:21.077Z,68.60
2019-01-24T16:23:21.066Z,69.60
2019-01-24T16:24:21.141Z,65.50
2019-01-24T16:25:21.105Z,66.10
2019-01-24T16:26:21.029Z,65.60
2019-01-24T16:27:21.025Z,67.30
2019-01-24T16:28:24.743Z,67.50
2019-01-24T16:29:20.987Z,65.90
2019-01-24T16:30:21.077Z,66.60
2019-01-24T16:31:20.969Z,67.00
2019-01-24T16:32:20.996Z,65.00
2019-01-24T16:33:20.989Z,64.20
2019-01-24T16:34:21.016Z,65.30
2019-01-24T16:35:20.960Z,66.60
2019-01-24T16:36:21.768Z,65.20
2019-01-24T16:37:20.958Z,65.00
2019-01-24T16:38:20.945Z,65.30
2019-01-24T16:39:20.892Z,65.00
2019-01-24T16:40:20.903Z,65.40
2019-01-24T16:41:20.873Z,67.70
2019-01-24T16:42:20.947Z,68.50
2019-01-24T16:43:20.883Z,66.80
2019-01-24T16:44:20.928Z,65.90
2019-01-24T16:45:20.837Z,65.50
2019-01-24T16:46:20.881Z,64.10
2019-01-24T16:47:20.823Z,64.90
2019-01-24T16:48:20.805Z,68.60
2019-01-24T16:49:20.818Z,63.90
2019-01-24T16:50:20.802Z,65.90
2019-01-24T16:51:21.711Z,66.80
2019-01-24T16:52:20.765Z,67.70
2019-01-24T16:53:20.741Z,67.00
2019-01-24T16:54:20.830Z,66.70
2019-01-24T16:55:20.748Z,66.70
2019-01-24T16:56:20.763Z,69.00
2019-01-24T16:57:20.856Z,67.90
2019-01-24T16:58:20.971Z,65.20
2019-01-24T16:59:20.716Z,67.10
2019-01-24T17:00:20.715Z,69.40
2019-01-24T17:01:20.660Z,68.80
2019-01-24T17:02:20.676Z,68.90
2019-01-24T17:03:20.698Z,65.70
2019-01-24T17:04:20.706Z,69.70
2019-01-24T17:05:20.679Z,67.30
2019-01-24T17:06:20.746Z,67.70
2019-01-24T17:07:20.772Z,67.60
2019-01-24T17:08:20.633Z,66.70
2019-01-24T17:09:21.553Z,67.50
2019-01-24T17:10:20.688Z,71.50
2019-01-24T17:11:20.739Z,66.20
2019-01-24T17:12:20.554Z,72.00
2019-01-24T17:13:20.565Z,68.90
2019-01-24T17:14:22.396Z,69.10
2019-01-24T17:15:20.525Z,68.70
2019-01-24T17:16:20.514Z,68.10
2019-01-24T17:17:20.542Z,69.70
2019-01-24T17:18:20.668Z,71.20
2019-01-24T17:19:20.532Z,69.30
2019-01-24T17:20:20.481Z,73.00
2019-01-24T17:21:20.519Z,66.50
2019-01-24T17:22:20.698Z,67.50
2019-01-24T17:23:20.638Z,69.60
2019-01-24T17:24:20.532Z,67.50
2019-01-24T17:25:20.491Z,67.90
2019-01-24T17:26:20.492Z,68.20
2019-01-24T17:27:20.590Z,68.60
2019-01-24T17:28:20.532Z,68.30
2019-01-24T17:29:20.500Z,70.30
2019-01-24T17:30:20.416Z,66.50
2019-01-24T17:31:20.377Z,71.30
2019-01-24T17:32:20.396Z,70.50
2019-01-24T17:33:20.393Z,71.60
2019-01-24T17:34:20.335Z,71.40
2019-01-24T17:35:20.357Z,71.20
2019-01-24T17:36:20.313Z,73.10
2019-01-24T17:37:20.328Z,73.00
2019-01-24T17:38:23.790Z,70.60
2019-01-24T17:39:20.291Z,69.10
2019-01-24T17:40:20.274Z,71.40
2019-01-24T17:41:20.537Z,71.40
2019-01-24T17:42:20.263Z,68.50
2019-01-24T17:43:20.264Z,73.30
2019-01-24T17:44:20.223Z,70.90
2019-01-24T17:45:20.322Z,71.60
2019-01-24T17:46:20.204Z,68.90
2019-01-24T17:47:20.193Z,70.10
2019-01-24T17:48:20.221Z,70.90
2019-01-24T17:49:20.195Z,71.20
2019-01-24T17:50:20.178Z,69.30
2019-01-24T17:51:20.156Z,70.60
2019-01-24T17:52:20.135Z,67.50
2019-01-24T17:53:20.134Z,67.30
2019-01-24T17:54:20.305Z,69.50
2019-01-24T17:55:20.124Z,68.30
2019-01-24T17:56:20.115Z,69.30
2019-01-24T17:57:20.986Z,70.60
2019-01-24T17:58:20.097Z,69.70
2019-01-24T17:59:21.056Z,70.60
2019-01-24T18:00:20.130Z,70.30
2019-01-24T18:01:20.123Z,66.60
2019-01-24T18:02:20.070Z,68.10
2019-01-24T18:03:20.047Z,64.30
2019-01-24T18:04:21.795Z,68.60
2019-01-24T18:05:20.110Z,70.00
2019-01-24T18:06:20.131Z,69.10
2019-01-24T18:07:20.176Z,68.20
2019-01-24T18:08:20.095Z,66.70
2019-01-24T18:09:20.204Z,67.40
2019-01-24T18:10:20.416Z,68.30
2019-01-24T18:11:20.505Z,71.70
2019-01-24T18:12:20.151Z,68.20
2019-01-24T18:13:20.300Z,72.40
2019-01-24T18:14:20.032Z,72.70
2019-01-24T18:15:20.026Z,72.90
2019-01-24T18:16:20.094Z,71.80
2019-01-24T18:17:20.556Z,71.90
2019-01-24T18:18:20.017Z,71.20
2019-01-24T18:19:20.114Z,73.60
2019-01-24T18:20:19.928Z,74.60
2019-01-24T18:21:19.887Z,73.30
2019-01-24T18:22:19.859Z,74.00
2019-01-24T18:23:20.556Z,72.00
2019-01-24T18:24:19.943Z,72.20
2019-01-24T18:25:19.903Z,72.70
2019-01-24T18:26:19.855Z,72.10
2019-01-24T18:27:19.791Z,75.50
2019-01-24T18:28:19.961Z,73.80
2019-01-24T18:29:19.983Z,71.30
2019-01-24T18:30:19.855Z,72.80
2019-01-24T18:31:19.871Z,70.20
2019-01-24T18:32:19.793Z,73.30
2019-01-24T18:33:19.887Z,73.70
2019-01-24T18:34:19.734Z,72.30
2019-01-24T18:35:19.891Z,76.60
2019-01-24T18:36:21.071Z,76.40
2019-01-24T18:37:19.777Z,74.40
2019-01-24T18:38:19.802Z,73.80
2019-01-24T18:39:19.734Z,72.60
2019-01-24T18:40:19.702Z,71.90
2019-01-24T18:41:19.683Z,70.50
2019-01-24T18:42:19.647Z,70.90
2019-01-24T18:43:19.846Z,72.00
2019-01-24T18:44:19.631Z,71.50
2019-01-24T18:45:19.677Z,71.10
2019-01-24T18:46:19.616Z,74.00
2019-01-24T18:47:19.648Z,74.30
2019-01-24T18:48:19.690Z,69.10
2019-01-24T18:49:19.577Z,69.90
2019-01-24T18:50:19.619Z,71.20
2019-01-24T18:51:19.570Z,74.20
2019-01-24T18:52:19.606Z,72.60
2019-01-24T18:53:19.574Z,73.80
2019-01-24T18:54:19.554Z,71.50
2019-01-24T18:55:19.528Z,69.90
2019-01-24T18:56:19.505Z,73.70
2019-01-24T18:57:19.509Z,73.90
2019-01-24T18:58:19.491Z,72.40
2019-01-24T18:59:19.529Z,71.30
2019-01-24T19:00:19.566Z,70.00
2019-01-24T19:01:19.493Z,69.30
2019-01-24T19:02:19.513Z,67.90
2019-01-24T19:03:19.492Z,70.00
2019-01-24T19:04:19.489Z,69.80
2019-01-24T19:06:36.912Z,67.40
2019-01-24T19:07:47.200Z,65.10
2019-01-24T19:08:36.870Z,70.90
2019-01-24T19:09:36.871Z,66.70
2019-01-24T19:10:36.808Z,67.90
2019-01-24T19:11:36.774Z,70.10
2019-01-24T19:12:36.780Z,69.50
2019-01-24T19:13:36.763Z,69.10
2019-01-24T19:14:37.974Z,66.30
2019-01-24T19:15:37.638Z,68.10
2019-01-24T19:16:37.636Z,67.50
2019-01-24T19:17:48.255Z,64.80
2019-01-24T19:18:36.748Z,66.30
2019-01-24T19:19:36.723Z,65.10
2019-01-24T19:20:36.752Z,66.60
2019-01-24T19:21:36.731Z,64.60
2019-01-24T19:22:36.674Z,65.10
2019-01-24T19:23:36.695Z,67.00
2019-01-24T19:24:36.674Z,63.60
2019-01-24T19:25:36.688Z,63.30
2019-01-24T19:26:38.164Z,63.80
2019-01-24T19:27:36.635Z,63.70
2019-01-24T19:28:36.673Z,63.90
2019-01-24T19:29:36.615Z,63.90
2019-01-24T19:30:36.699Z,63.40
2019-01-24T19:31:37.793Z,66.30
2019-01-24T19:32:36.615Z,65.00
2019-01-24T19:33:36.596Z,63.70
2019-01-24T19:34:36.615Z,64.00
2019-01-24T19:35:36.575Z,65.60
2019-01-24T19:36:36.642Z,64.40
2019-01-24T19:37:36.563Z,64.90
2019-01-24T19:38:36.593Z,63.90
2019-01-24T19:39:36.554Z,62.70
2019-01-24T19:40:36.608Z,62.80
2019-01-24T19:41:37.102Z,68.10
2019-01-24T19:42:36.498Z,66.00
2019-01-24T19:43:36.519Z,63.80
2019-01-24T19:44:36.497Z,66.30
2019-01-24T19:45:36.452Z,67.60
2019-01-24T19:46:36.548Z,65.80
2019-01-24T19:47:36.517Z,68.70
2019-01-24T19:48:36.451Z,64.60
2019-01-24T19:49:36.435Z,65.20
2019-01-24T19:50:36.511Z,64.20
2019-01-24T19:51:36.467Z,66.20
2019-01-24T19:52:36.545Z,64.80
2019-01-24T19:53:36.456Z,68.00